aviador You're here:

KJXN Decoded Metar

JACKSON/REYNOLDS in MI, USA
Report Time2017-05-29 02:56:00
UTC Time2017-05-29 03:59:23
Flight Rules vfr VFR
Wind280° at 09 kt
W.Decomp.*RWY 32: 7.4 kt HW 5.2 kt LCW
RWY 24: 6.4 kt HW 6.4 kt RCW
W.Rank280° ranks 8
Current wind is above 280° avg. (8.0)
Visibility9999 m
Phenomena:N/A
Clouds:N/A
Expected CloudBase > 1,600 ft AGL from Temp-Dew spread
CeilingNone
Temp17°C (ISA +4)
Dew Point13°C (77% RH)
AAT14.7°C
QNH1007 hPa
Density Alt1,877 ft
Elevation1,001 ft
Report Wrong Elevation
Raw Report
KJXN 290256Z AUTO 28009KT 10SM CLR 17/13 A2973 RMK AO2 SLP063
T01720133 51016=

Extra information for KJXN:More info

Metar Taf Metar & Taf Last 4 Metars F.Rules Stats Wind Profile Meteogram Temp Stats Airport Information Weather charts Add Link Nearby VenuesMetar ALERT Operation Metar Decoded Social comments

AIRNAV info for KJXN